createdAt,value
2022-12-16T00:01:19.121Z,13.52
2022-12-16T00:03:52.102Z,17.13
2022-12-16T00:06:19.869Z,14.63
2022-12-16T00:08:46.669Z,12.13
2022-12-16T00:11:14.262Z,10.85
2022-12-16T00:13:41.110Z,11.10
2022-12-16T00:16:13.600Z,11.15
2022-12-16T00:18:40.806Z,13.20
2022-12-16T00:21:08.698Z,11.52
2022-12-16T00:23:37.030Z,13.73
2022-12-16T00:26:04.129Z,13.70
2022-12-16T00:28:31.041Z,14.15
2022-12-16T00:30:58.493Z,13.05
2022-12-16T00:33:27.425Z,13.80
2022-12-16T00:35:54.944Z,13.40
2022-12-16T00:38:22.641Z,14.52
2022-12-16T00:40:49.137Z,17.35
2022-12-16T00:43:15.934Z,9.73
2022-12-16T00:45:42.602Z,14.02
2022-12-16T00:48:09.785Z,11.70
2022-12-16T00:50:36.650Z,12.45
2022-12-16T00:53:04.310Z,13.93
2022-12-16T00:55:31.284Z,14.55
2022-12-16T00:57:57.808Z,12.18
2022-12-16T01:00:24.834Z,10.63
2022-12-16T01:02:52.104Z,13.20
2022-12-16T01:05:22.216Z,10.50
2022-12-16T01:07:48.749Z,9.98
2022-12-16T01:10:15.589Z,12.85
2022-12-16T01:12:42.136Z,12.57
2022-12-16T01:15:10.339Z,12.48
2022-12-16T01:17:36.931Z,12.27
2022-12-16T01:20:03.992Z,12.20
2022-12-16T01:22:32.928Z,10.77
2022-12-16T01:25:00.235Z,15.65
2022-12-16T01:27:28.220Z,10.45
2022-12-16T01:29:55.529Z,15.65
2022-12-16T01:32:22.980Z,13.90
2022-12-16T01:34:55.401Z,11.32
2022-12-16T01:37:23.688Z,11.07
2022-12-16T01:39:50.731Z,12.50
2022-12-16T01:42:20.793Z,9.43
2022-12-16T01:44:49.873Z,14.13
2022-12-16T01:47:26.533Z,10.77
2022-12-16T01:50:02.152Z,10.27
2022-12-16T01:52:34.090Z,13.25
2022-12-16T01:55:09.495Z,12.90
2022-12-16T01:57:41.216Z,10.32
2022-12-16T02:00:09.161Z,12.68
2022-12-16T02:02:36.671Z,8.52
2022-12-16T02:05:21.797Z,10.25
2022-12-16T02:08:07.133Z,10.32
2022-12-16T02:10:56.649Z,10.45
2022-12-16T02:13:32.296Z,9.85
2022-12-16T02:16:17.196Z,12.80
2022-12-16T02:19:15.998Z,12.07
2022-12-16T02:22:14.940Z,16.65
2022-12-16T02:25:06.397Z,8.98
2022-12-16T02:27:46.132Z,9.25
2022-12-16T02:30:31.252Z,9.98
2022-12-16T02:33:29.020Z,11.23
2022-12-16T02:36:07.931Z,12.52
2022-12-16T02:38:52.157Z,12.77
2022-12-16T02:41:37.635Z,13.10
2022-12-16T02:44:09.265Z,15.02
2022-12-16T02:46:53.040Z,9.27
2022-12-16T02:49:21.929Z,11.68
2022-12-16T02:51:49.251Z,11.30
2022-12-16T02:54:17.673Z,11.77
2022-12-16T02:57:12.229Z,10.60
2022-12-16T02:59:53.788Z,18.80
2022-12-16T03:02:35.464Z,16.35
2022-12-16T03:05:38.189Z,9.68
2022-12-16T03:08:10.976Z,11.93
2022-12-16T03:11:01.460Z,13.98
2022-12-16T03:13:33.069Z,10.68
2022-12-16T03:16:03.027Z,14.80
2022-12-16T03:18:30.100Z,10.95
2022-12-16T03:21:05.260Z,17.77
2022-12-16T03:23:37.884Z,15.13
2022-12-16T03:26:10.200Z,10.80
2022-12-16T03:28:52.568Z,14.57
2022-12-16T03:31:44.143Z,12.43
2022-12-16T03:34:58.031Z,16.48
2022-12-16T03:37:27.807Z,15.52
2022-12-16T03:40:00.812Z,16.63
2022-12-16T03:42:27.904Z,15.82
2022-12-16T03:44:54.554Z,18.48
2022-12-16T03:47:24.040Z,12.85
2022-12-16T03:49:51.274Z,17.95
2022-12-16T03:52:18.311Z,14.93
2022-12-16T03:54:45.373Z,18.70
2022-12-16T03:57:15.478Z,20.15
2022-12-16T03:59:42.898Z,20.38
2022-12-16T04:02:09.752Z,21.17
2022-12-16T04:04:36.377Z,36.20
2022-12-16T04:07:21.048Z,22.90
2022-12-16T04:09:52.133Z,23.27
2022-12-16T04:12:38.242Z,23.05
2022-12-16T04:15:25.341Z,24.88
2022-12-16T04:18:10.659Z,22.80
2022-12-16T04:20:59.156Z,25.02
2022-12-16T04:23:46.670Z,26.73
2022-12-16T04:26:13.543Z,18.45
2022-12-16T04:28:40.391Z,18.88
2022-12-16T04:31:07.321Z,19.88
2022-12-16T04:33:53.135Z,21.55
2022-12-16T04:36:38.284Z,20.42
2022-12-16T04:39:23.633Z,22.63
2022-12-16T04:42:14.612Z,17.50
2022-12-16T04:44:59.888Z,17.63
2022-12-16T04:47:45.156Z,15.13
2022-12-16T04:50:30.473Z,13.82
2022-12-16T04:53:15.185Z,23.33
2022-12-16T04:56:04.042Z,17.70
2022-12-16T04:58:50.010Z,14.50
2022-12-16T05:01:34.984Z,16.80
2022-12-16T05:04:20.043Z,14.27
2022-12-16T05:09:49.816Z,15.88
2022-12-16T05:15:19.867Z,12.07
2022-12-16T05:18:05.017Z,13.35
2022-12-16T05:20:50.036Z,7.95
2022-12-16T05:23:35.733Z,10.15
2022-12-16T05:26:40.594Z,10.95
2022-12-16T05:29:25.428Z,9.82
2022-12-16T05:32:10.264Z,7.22
2022-12-16T05:37:40.410Z,11.35
2022-12-16T05:40:28.293Z,11.35
2022-12-16T05:43:16.844Z,10.30
2022-12-16T05:46:02.616Z,11.50
2022-12-16T05:48:47.853Z,9.55
2022-12-16T05:51:33.475Z,13.70
2022-12-16T05:54:18.321Z,10.23
2022-12-16T05:59:48.184Z,8.52
2022-12-16T06:02:33.302Z,8.82
2022-12-16T06:05:18.574Z,15.32
2022-12-16T06:08:12.028Z,14.85
2022-12-16T06:10:57.443Z,22.35
2022-12-16T06:13:42.476Z,20.60
2022-12-16T06:16:27.486Z,22.13
2022-12-16T06:19:12.495Z,24.88
2022-12-16T06:21:57.761Z,22.15
2022-12-16T06:24:42.391Z,26.48
2022-12-16T06:27:27.556Z,28.73
2022-12-16T06:30:12.657Z,21.25
2022-12-16T06:32:57.615Z,19.52
2022-12-16T06:35:42.670Z,21.90
2022-12-16T06:38:27.562Z,28.55
2022-12-16T06:41:12.575Z,18.95
2022-12-16T06:43:57.812Z,22.52
2022-12-16T06:46:42.943Z,23.30
2022-12-16T06:49:28.083Z,20.88
2022-12-16T06:52:13.173Z,26.35
2022-12-16T06:54:58.814Z,24.55
2022-12-16T06:57:43.552Z,21.02
2022-12-16T07:00:29.884Z,19.02
2022-12-16T07:03:14.993Z,16.10
2022-12-16T07:06:00.251Z,26.02
2022-12-16T07:08:45.395Z,21.25
2022-12-16T07:11:31.014Z,16.45
2022-12-16T07:14:16.097Z,15.23
2022-12-16T07:17:01.116Z,14.95
2022-12-16T07:19:49.435Z,12.10
2022-12-16T07:22:34.091Z,12.32
2022-12-16T07:25:19.420Z,14.88
2022-12-16T07:28:08.281Z,14.02
2022-12-16T07:30:57.334Z,16.20
2022-12-16T07:33:42.755Z,11.50
2022-12-16T07:36:28.198Z,17.23
2022-12-16T07:39:12.973Z,15.05
2022-12-16T07:41:57.882Z,15.43
2022-12-16T07:47:28.216Z,18.13
2022-12-16T07:50:13.090Z,17.48
2022-12-16T07:55:42.657Z,16.80
2022-12-16T08:03:58.614Z,16.63
2022-12-16T08:06:43.824Z,16.85
2022-12-16T08:09:28.583Z,20.55
2022-12-16T08:12:30.166Z,20.75
2022-12-16T08:15:15.626Z,26.60
2022-12-16T08:18:08.575Z,18.05
2022-12-16T08:20:53.942Z,11.48
2022-12-16T08:23:40.734Z,10.05
2022-12-16T08:26:26.801Z,9.57
2022-12-16T08:29:42.026Z,8.82
2022-12-16T08:32:17.103Z,11.43
2022-12-16T08:35:02.134Z,10.55
2022-12-16T08:37:47.029Z,6.35
2022-12-16T08:43:22.195Z,8.13
2022-12-16T08:46:07.690Z,6.88
2022-12-16T08:48:52.970Z,10.63
2022-12-16T08:51:37.808Z,8.95
2022-12-16T08:57:07.530Z,8.32
2022-12-16T09:02:38.141Z,5.47
2022-12-16T09:05:23.674Z,4.95
2022-12-16T09:08:09.073Z,11.88
2022-12-16T09:10:55.170Z,11.70
2022-12-16T09:13:44.706Z,6.22
2022-12-16T09:16:29.685Z,7.07
2022-12-16T09:19:14.798Z,14.38
2022-12-16T09:22:00.211Z,5.18
2022-12-16T09:24:45.053Z,6.53
2022-12-16T09:30:14.848Z,5.75
2022-12-16T09:33:04.352Z,5.47
2022-12-16T09:35:50.182Z,9.60
2022-12-16T09:38:36.606Z,8.88
2022-12-16T09:41:47.005Z,11.05
2022-12-16T09:44:49.654Z,7.53
2022-12-16T09:47:54.154Z,10.73
2022-12-16T09:50:44.944Z,9.32
2022-12-16T09:53:36.688Z,7.13
2022-12-16T09:56:26.244Z,9.13
2022-12-16T09:59:18.537Z,9.40
2022-12-16T10:02:04.175Z,11.68
2022-12-16T10:04:49.790Z,8.73
2022-12-16T10:07:41.713Z,11.80
2022-12-16T10:10:47.260Z,12.10
2022-12-16T10:16:43.271Z,7.03
2022-12-16T10:19:50.544Z,9.05
2022-12-16T10:22:51.693Z,7.28
2022-12-16T10:25:42.690Z,10.35
2022-12-16T10:28:43.138Z,6.70
2022-12-16T10:31:33.965Z,5.97
2022-12-16T10:34:19.126Z,8.02
2022-12-16T10:37:09.269Z,12.93
2022-12-16T10:40:03.020Z,11.68
2022-12-16T10:42:55.901Z,7.63
2022-12-16T10:45:48.932Z,10.43
2022-12-16T10:48:47.946Z,6.43
2022-12-16T10:51:40.365Z,7.93
2022-12-16T10:54:41.023Z,6.50
2022-12-16T10:57:50.484Z,6.90
2022-12-16T11:00:39.859Z,9.98
2022-12-16T11:03:46.934Z,6.38
2022-12-16T11:06:37.527Z,9.25
2022-12-16T11:09:46.949Z,10.98
2022-12-16T11:12:51.168Z,8.10
2022-12-16T11:15:50.195Z,7.70
2022-12-16T11:18:38.392Z,9.75
2022-12-16T11:21:23.187Z,7.43
2022-12-16T11:27:18.589Z,5.47
2022-12-16T11:30:14.110Z,6.30
2022-12-16T11:33:12.743Z,7.20
2022-12-16T11:36:03.264Z,4.78
2022-12-16T11:39:15.873Z,4.38
2022-12-16T11:42:08.109Z,8.20
2022-12-16T11:45:08.496Z,7.45
2022-12-16T11:48:26.055Z,8.90
2022-12-16T11:51:16.394Z,8.10
2022-12-16T11:54:42.092Z,5.60
2022-12-16T11:57:38.290Z,5.32
2022-12-16T12:00:24.614Z,3.67
2022-12-16T12:03:46.212Z,2.83
2022-12-16T12:07:15.887Z,2.75
2022-12-16T12:10:11.864Z,5.28
2022-12-16T12:13:05.720Z,3.63
2022-12-16T12:16:02.656Z,4.05
2022-12-16T12:19:19.119Z,3.38
2022-12-16T12:22:04.282Z,3.28
2022-12-16T12:25:04.711Z,35.83
2022-12-16T12:28:03.579Z,11.25
2022-12-16T12:30:55.989Z,3.55
2022-12-16T12:34:09.229Z,7.18
2022-12-16T12:37:46.696Z,3.78
2022-12-16T12:41:16.661Z,6.00
2022-12-16T12:44:42.562Z,5.00
2022-12-16T12:47:35.967Z,2.97
2022-12-16T12:50:31.504Z,4.25
2022-12-16T12:53:16.347Z,3.75
2022-12-16T12:58:51.594Z,3.40
2022-12-16T13:01:41.133Z,7.47
2022-12-16T13:04:34.887Z,6.18
2022-12-16T13:07:20.977Z,10.13
2022-12-16T13:10:44.281Z,10.18
2022-12-16T13:13:36.765Z,13.57
2022-12-16T13:16:27.733Z,10.70
2022-12-16T13:19:50.325Z,9.77
2022-12-16T13:23:05.014Z,10.38
2022-12-16T13:26:08.139Z,10.73
2022-12-16T13:28:58.988Z,11.75
2022-12-16T13:31:46.796Z,9.90
2022-12-16T13:34:38.241Z,13.68
2022-12-16T13:37:31.034Z,24.88
2022-12-16T13:40:25.138Z,8.50
2022-12-16T13:43:12.819Z,11.93
2022-12-16T13:46:02.717Z,7.15
2022-12-16T13:48:57.095Z,10.15
2022-12-16T13:51:57.245Z,10.55
2022-12-16T13:54:49.799Z,8.80
2022-12-16T13:57:38.126Z,9.55
2022-12-16T14:00:36.602Z,8.07
2022-12-16T14:03:28.468Z,7.25
2022-12-16T14:06:14.186Z,9.35
2022-12-16T14:09:00.020Z,8.05
2022-12-16T14:12:09.637Z,10.63
2022-12-16T14:15:02.871Z,8.70
2022-12-16T14:18:01.360Z,10.85
2022-12-16T14:20:54.192Z,10.80
2022-12-16T14:23:56.974Z,10.50
2022-12-16T14:26:43.632Z,8.93
2022-12-16T14:29:51.511Z,7.78
2022-12-16T14:33:02.650Z,9.52
2022-12-16T14:35:47.482Z,8.48
2022-12-16T14:42:00.925Z,14.02
2022-12-16T14:44:45.994Z,8.65
2022-12-16T14:47:36.382Z,10.20
2022-12-16T14:50:22.356Z,8.55
2022-12-16T14:53:07.546Z,9.35
2022-12-16T14:55:53.855Z,13.77
2022-12-16T14:58:41.698Z,19.42
2022-12-16T15:01:34.438Z,27.33
2022-12-16T15:04:25.110Z,27.35
2022-12-16T15:07:13.397Z,35.08
2022-12-16T15:10:02.346Z,23.48
2022-12-16T15:13:08.439Z,19.83
2022-12-16T15:16:00.635Z,21.90
2022-12-16T15:18:59.121Z,32.17
2022-12-16T15:21:45.068Z,44.97
2022-12-16T15:24:36.503Z,51.15
2022-12-16T15:27:39.461Z,39.38
2022-12-16T15:30:58.699Z,43.42
2022-12-16T15:33:49.553Z,28.67
2022-12-16T15:36:46.220Z,35.45
2022-12-16T15:39:41.656Z,23.33
2022-12-16T15:42:43.615Z,25.73
2022-12-16T15:45:36.068Z,30.75
2022-12-16T15:48:48.060Z,37.60
2022-12-16T15:51:45.139Z,18.00
2022-12-16T15:54:41.999Z,19.70
2022-12-16T15:57:51.149Z,9.90
2022-12-16T16:00:56.650Z,10.65
2022-12-16T16:03:49.754Z,13.35
2022-12-16T16:06:40.480Z,13.88
2022-12-16T16:09:41.154Z,15.00
2022-12-16T16:12:28.381Z,16.70
2022-12-16T16:15:13.805Z,18.30
2022-12-16T16:17:59.207Z,24.15
2022-12-16T16:20:44.583Z,21.92
2022-12-16T16:23:29.751Z,19.05
2022-12-16T16:26:14.756Z,18.42
2022-12-16T16:28:59.490Z,21.30
2022-12-16T16:31:44.410Z,13.30
2022-12-16T16:37:17.078Z,14.13
2022-12-16T16:40:03.664Z,21.02
2022-12-16T16:42:49.029Z,16.38
2022-12-16T16:45:34.165Z,12.23
2022-12-16T16:48:30.703Z,18.00
2022-12-16T16:51:17.025Z,14.00
2022-12-16T16:54:02.483Z,14.30
2022-12-16T16:56:50.496Z,16.48
2022-12-16T16:59:35.789Z,14.50
2022-12-16T17:02:21.248Z,16.00
2022-12-16T17:05:06.402Z,16.75
2022-12-16T17:07:53.926Z,14.40
2022-12-16T17:10:39.336Z,12.93
2022-12-16T17:13:24.143Z,11.88
2022-12-16T17:16:09.058Z,13.25
2022-12-16T17:21:39.062Z,15.52
2022-12-16T17:24:24.357Z,11.90
2022-12-16T17:27:09.413Z,14.93
2022-12-16T17:32:39.090Z,12.52
2022-12-16T17:35:24.549Z,20.17
2022-12-16T17:38:10.104Z,14.85
2022-12-16T17:40:54.846Z,9.77
2022-12-16T17:43:39.573Z,10.27
2022-12-16T17:46:27.793Z,11.05
2022-12-16T17:49:15.093Z,14.68
2022-12-16T17:52:00.878Z,14.18
2022-12-16T17:54:46.164Z,10.55
2022-12-16T17:57:31.099Z,12.27
2022-12-16T18:00:16.421Z,16.50
2022-12-16T18:03:02.563Z,13.65
2022-12-16T18:05:47.709Z,13.68
2022-12-16T18:11:18.233Z,7.10
2022-12-16T18:14:03.444Z,9.57
2022-12-16T18:16:48.930Z,7.28
2022-12-16T18:19:35.067Z,10.75
2022-12-16T18:22:20.977Z,5.82
2022-12-16T18:25:05.858Z,9.40
2022-12-16T18:27:51.099Z,7.72
2022-12-16T18:30:36.517Z,13.63
2022-12-16T18:33:21.877Z,11.13
2022-12-16T18:36:06.775Z,16.55
2022-12-16T18:38:51.846Z,9.73
2022-12-16T18:41:39.533Z,8.68
2022-12-16T18:44:25.945Z,9.98
2022-12-16T18:47:10.857Z,8.38
2022-12-16T18:49:55.751Z,7.80
2022-12-16T18:52:41.137Z,11.10
2022-12-16T18:55:26.439Z,9.85
2022-12-16T18:58:34.811Z,10.20
2022-12-16T19:01:27.829Z,11.35
2022-12-16T19:04:14.507Z,9.00
2022-12-16T19:07:00.030Z,9.88
2022-12-16T19:09:45.341Z,9.02
2022-12-16T19:12:30.495Z,10.98
2022-12-16T19:15:15.979Z,10.60
2022-12-16T19:18:01.012Z,11.30
2022-12-16T19:23:33.544Z,13.25
2022-12-16T19:26:19.550Z,12.68
2022-12-16T19:29:04.584Z,27.73
2022-12-16T19:34:34.838Z,60.58
2022-12-16T19:37:19.805Z,12.60
2022-12-16T19:42:50.115Z,17.30
2022-12-16T19:45:34.993Z,17.92
2022-12-16T19:48:24.947Z,36.05
2022-12-16T19:51:20.854Z,14.15
2022-12-16T19:54:06.157Z,19.92
2022-12-16T19:56:52.021Z,16.58
2022-12-16T19:59:38.538Z,30.10
2022-12-16T20:02:25.428Z,15.13
2022-12-16T20:05:10.670Z,21.92
2022-12-16T20:10:41.736Z,30.60
2022-12-16T20:13:30.213Z,27.92
2022-12-16T20:16:23.819Z,24.45
2022-12-16T20:19:09.112Z,26.90
2022-12-16T20:21:56.483Z,23.45
2022-12-16T20:24:42.814Z,23.67
2022-12-16T20:27:29.225Z,23.00
2022-12-16T20:30:16.343Z,27.33
2022-12-16T20:33:01.427Z,28.13
2022-12-16T20:38:31.541Z,25.40
2022-12-16T20:41:18.024Z,27.27
2022-12-16T20:44:04.897Z,33.83
2022-12-16T20:46:50.008Z,23.25
2022-12-16T20:52:19.753Z,25.50
2022-12-16T20:55:04.592Z,27.30
2022-12-16T20:57:49.504Z,31.25
2022-12-16T21:00:35.375Z,27.95
2022-12-16T21:03:22.193Z,29.95
2022-12-16T21:06:07.093Z,28.67
2022-12-16T21:08:52.401Z,27.50
2022-12-16T21:11:38.543Z,26.50
2022-12-16T21:14:23.794Z,27.52
2022-12-16T21:17:08.543Z,28.60
2022-12-16T21:19:54.701Z,32.70
2022-12-16T21:22:41.338Z,34.58
2022-12-16T21:25:26.892Z,32.10
2022-12-16T21:28:18.268Z,28.58
2022-12-16T21:31:03.562Z,26.70
2022-12-16T21:33:49.188Z,26.75
2022-12-16T21:36:34.619Z,26.75
2022-12-16T21:39:19.864Z,28.73
2022-12-16T21:42:04.705Z,29.45
2022-12-16T21:44:50.015Z,27.65
2022-12-16T21:47:35.052Z,21.00
2022-12-16T21:53:08.039Z,20.63
2022-12-16T21:55:53.129Z,21.95
2022-12-16T21:58:38.903Z,27.83
2022-12-16T22:01:24.398Z,21.90
2022-12-16T22:04:09.615Z,22.52
2022-12-16T22:06:55.134Z,25.80
2022-12-16T22:09:40.278Z,25.30
2022-12-16T22:12:25.798Z,24.92
2022-12-16T22:15:10.721Z,21.20
2022-12-16T22:17:58.628Z,26.67
2022-12-16T22:20:44.498Z,23.65
2022-12-16T22:23:29.618Z,28.50
2022-12-16T22:26:16.049Z,24.58
2022-12-16T22:29:01.468Z,27.48
2022-12-16T22:31:46.802Z,25.40
2022-12-16T22:34:32.008Z,25.20
2022-12-16T22:37:17.061Z,23.83
2022-12-16T22:42:47.060Z,20.73
2022-12-16T22:45:32.173Z,21.52
2022-12-16T22:51:02.324Z,22.38
2022-12-16T22:56:32.074Z,21.70
2022-12-16T22:59:17.258Z,23.25
2022-12-16T23:02:02.280Z,24.05
2022-12-16T23:07:33.155Z,23.73
2022-12-16T23:10:18.475Z,24.13
2022-12-16T23:13:03.558Z,22.30
2022-12-16T23:18:33.393Z,21.57
2022-12-16T23:21:18.478Z,23.02
2022-12-16T23:26:48.713Z,24.73
2022-12-16T23:29:33.920Z,28.38
2022-12-16T23:32:18.828Z,19.58
2022-12-16T23:35:03.950Z,27.50
2022-12-16T23:37:48.820Z,24.08
2022-12-16T23:43:19.298Z,28.20
2022-12-16T23:46:04.612Z,22.42
2022-12-16T23:48:49.991Z,23.70
2022-12-16T23:51:35.145Z,23.23
2022-12-16T23:54:20.233Z,21.10
2022-12-16T23:59:49.959Z,19.83
